Ellsworth, Minnesota
Current Conditions -  °F | °C
As of 11:34 PM on Sunday 19 Oct 2014 (Local Time) from KLYV Reporting Station
Clear Clear  
Wind Chill: 52°   Ceiling: Unl
Heat Index: 52°   Visibility: 10mi
Dew Point: 37°   Wind: 5mph
Humidity: 58%   Direction: 350°N
Pressure: 29.97"   Gusts: NA
Location:  43.52°N, 96.02°W
Report Text: KLYV 200434Z AUTO 35004KT 10SM CLR 11/03 A2997 RMK AO2
Loading
Personal Weather Stations






























Interactive Weather Map
Tropical Storm Tracking
New forecast layout! Learn more

10-Day Weather Forecast

Advertisements
Track Severe Weather on mobile